createdAt,value
2023-02-19T00:01:16.213Z,99766.72
2023-02-19T00:03:49.054Z,99771.88
2023-02-19T00:06:15.583Z,99772.69
2023-02-19T00:08:42.078Z,99772.78
2023-02-19T00:11:13.530Z,99758.75
2023-02-19T00:13:42.829Z,99759.75
2023-02-19T00:16:10.179Z,99765.72
2023-02-19T00:18:36.768Z,99763.97
2023-02-19T00:21:03.499Z,99764.94
2023-02-19T00:23:30.769Z,99763.28
2023-02-19T00:26:03.247Z,99758.06
2023-02-19T00:28:35.865Z,99755.34
2023-02-19T00:31:12.509Z,99751.00
2023-02-19T00:33:39.170Z,99752.78
2023-02-19T00:36:06.168Z,99749.28
2023-02-19T00:38:36.671Z,99757.97
2023-02-19T00:41:19.071Z,99754.50
2023-02-19T00:43:52.742Z,99750.16
2023-02-19T00:46:25.406Z,99743.97
2023-02-19T00:48:52.740Z,99738.75
2023-02-19T00:51:20.763Z,99741.41
2023-02-19T00:53:47.241Z,99746.63
2023-02-19T00:56:14.055Z,99740.50
2023-02-19T00:58:40.697Z,99739.59
2023-02-19T01:01:08.147Z,99732.66
2023-02-19T01:03:36.481Z,99724.66
2023-02-19T01:06:04.715Z,99717.69
2023-02-19T01:08:31.387Z,99722.94
2023-02-19T01:10:58.841Z,99720.25
2023-02-19T01:13:26.027Z,99713.34
2023-02-19T01:15:52.581Z,99700.28
2023-02-19T01:18:19.106Z,99701.16
2023-02-19T01:20:45.735Z,99700.31
2023-02-19T01:23:14.009Z,99702.91
2023-02-19T01:25:42.284Z,99698.59
2023-02-19T01:28:09.384Z,99697.66
2023-02-19T01:30:37.213Z,99695.94
2023-02-19T01:33:08.355Z,99693.22
2023-02-19T01:35:38.621Z,99690.72
2023-02-19T01:38:05.248Z,99689.91
2023-02-19T01:40:31.736Z,99693.31
2023-02-19T01:42:58.267Z,99695.84
2023-02-19T01:45:24.705Z,99690.69
2023-02-19T01:48:01.571Z,99689.88
2023-02-19T01:50:32.100Z,99689.88
2023-02-19T01:53:01.987Z,99680.28
2023-02-19T01:55:28.522Z,99675.91
2023-02-19T01:57:56.387Z,99669.84
2023-02-19T02:00:24.433Z,99669.88
2023-02-19T02:02:53.611Z,99659.44
2023-02-19T02:05:29.721Z,99647.25
2023-02-19T02:08:14.910Z,99637.69
2023-02-19T02:10:42.989Z,99642.00
2023-02-19T02:13:09.590Z,99641.19
2023-02-19T02:16:16.053Z,99636.78
2023-02-19T02:19:05.012Z,99636.78
2023-02-19T02:21:54.075Z,99637.63
2023-02-19T02:24:28.841Z,99633.22
2023-02-19T02:27:13.574Z,99634.06
2023-02-19T02:30:03.993Z,99622.75
2023-02-19T02:32:40.473Z,99618.41
2023-02-19T02:35:13.555Z,99615.78
2023-02-19T02:37:43.582Z,99621.03
2023-02-19T02:40:12.242Z,99612.28
2023-02-19T02:42:40.234Z,99604.47
2023-02-19T02:45:35.311Z,99611.44
2023-02-19T02:48:09.194Z,99612.31
2023-02-19T02:50:41.830Z,99603.63
2023-02-19T02:53:35.169Z,99609.72
2023-02-19T02:56:03.184Z,99600.97
2023-02-19T02:58:31.517Z,99601.00
2023-02-19T03:01:22.543Z,99594.03
2023-02-19T03:03:54.805Z,99602.78
2023-02-19T03:06:23.737Z,99597.50
2023-02-19T03:09:11.537Z,99591.47
2023-02-19T03:12:00.265Z,99600.13
2023-02-19T03:14:53.487Z,99597.56
2023-02-19T03:17:46.171Z,99591.47
2023-02-19T03:20:16.064Z,99592.31
2023-02-19T03:22:45.616Z,99596.72
2023-02-19T03:25:37.513Z,99596.75
2023-02-19T03:28:07.004Z,99587.16
2023-02-19T03:30:38.508Z,99588.03
2023-02-19T03:33:11.460Z,99585.44
2023-02-19T03:35:43.372Z,99573.19
2023-02-19T03:38:22.098Z,99561.03
2023-02-19T03:40:58.499Z,99559.38
2023-02-19T03:43:58.821Z,99555.00
2023-02-19T03:46:35.373Z,99554.97
2023-02-19T03:49:09.141Z,99556.69
2023-02-19T03:51:55.192Z,99559.34
2023-02-19T03:54:38.369Z,99567.22
2023-02-19T03:57:15.936Z,99560.19
2023-02-19T03:59:52.579Z,99561.97
2023-02-19T04:02:27.495Z,99565.41
2023-02-19T04:05:17.748Z,99570.66
2023-02-19T04:07:50.765Z,99568.03
2023-02-19T04:10:19.113Z,99562.81
2023-02-19T04:12:52.881Z,99562.78
2023-02-19T04:15:25.025Z,99563.66
2023-02-19T04:17:57.351Z,99555.81
2023-02-19T04:20:27.816Z,99557.59
2023-02-19T04:22:55.025Z,99552.41
2023-02-19T04:25:24.022Z,99551.53
2023-02-19T04:27:50.657Z,99561.97
2023-02-19T04:30:17.550Z,99557.59
2023-02-19T04:32:44.077Z,99549.72
2023-02-19T04:35:10.633Z,99559.31
2023-02-19T04:37:37.129Z,99554.13
2023-02-19T04:40:04.151Z,99554.13
2023-02-19T04:42:30.723Z,99557.59
2023-02-19T04:44:57.182Z,99554.97
2023-02-19T04:47:23.693Z,99554.09
2023-02-19T04:49:50.207Z,99548.91
2023-02-19T04:52:16.753Z,99547.16
2023-02-19T04:54:43.226Z,99537.53
2023-02-19T04:57:09.726Z,99535.75
2023-02-19T04:59:36.244Z,99530.66
2023-02-19T05:02:02.745Z,99530.50
2023-02-19T05:04:29.285Z,99521.88
2023-02-19T05:06:55.788Z,99521.00
2023-02-19T05:09:22.304Z,99521.00
2023-02-19T05:11:48.774Z,99520.13
2023-02-19T05:14:15.290Z,99527.13
2023-02-19T05:16:41.786Z,99521.06
2023-02-19T05:19:11.777Z,99521.00
2023-02-19T05:21:40.390Z,99517.53
2023-02-19T05:24:07.646Z,99527.94
2023-02-19T05:26:34.770Z,99518.41
2023-02-19T05:29:01.491Z,99522.78
2023-02-19T05:31:28.282Z,99510.53
2023-02-19T05:33:57.616Z,99523.63
2023-02-19T05:36:24.374Z,99516.63
2023-02-19T05:38:57.599Z,99512.25
2023-02-19T05:41:28.663Z,99510.53
2023-02-19T05:43:55.848Z,99508.88
2023-02-19T05:46:25.733Z,99514.91
2023-02-19T05:48:53.664Z,99515.78
2023-02-19T05:51:22.452Z,99518.44
2023-02-19T05:53:49.772Z,99518.41
2023-02-19T05:56:35.104Z,99514.81
2023-02-19T05:59:15.038Z,99514.03
2023-02-19T06:01:41.796Z,99517.56
2023-02-19T06:04:10.303Z,99509.63
2023-02-19T06:06:37.405Z,99512.28
2023-02-19T06:09:05.220Z,99516.66
2023-02-19T06:11:32.454Z,99509.75
2023-02-19T06:13:59.051Z,99506.25
2023-02-19T06:16:26.242Z,99522.78
2023-02-19T06:18:52.851Z,99527.16
2023-02-19T06:21:19.805Z,99529.69
2023-02-19T06:23:46.826Z,99538.47
2023-02-19T06:26:17.801Z,99541.09
2023-02-19T06:28:45.604Z,99540.13
2023-02-19T06:31:13.449Z,99547.13
2023-02-19T06:33:41.152Z,99550.38
2023-02-19T06:36:12.293Z,99553.84
2023-02-19T06:38:39.100Z,99546.75
2023-02-19T06:41:06.552Z,99558.66
2023-02-19T06:43:33.936Z,99558.47
2023-02-19T06:46:07.043Z,99558.41
2023-02-19T06:48:34.536Z,99563.56
2023-02-19T06:51:01.171Z,99561.72
2023-02-19T06:53:27.769Z,99557.22
2023-02-19T06:56:20.750Z,99560.34
2023-02-19T06:58:47.270Z,99567.09
2023-02-19T07:01:13.966Z,99550.44
2023-02-19T07:03:40.537Z,99564.31
2023-02-19T07:06:07.253Z,99569.47
2023-02-19T07:08:33.881Z,99572.88
2023-02-19T07:11:00.445Z,99569.44
2023-02-19T07:13:27.531Z,99576.34
2023-02-19T07:16:03.501Z,99590.34
2023-02-19T07:18:31.028Z,99592.97
2023-02-19T07:21:10.262Z,99595.63
2023-02-19T07:23:37.628Z,99604.38
2023-02-19T07:26:05.084Z,99609.50
2023-02-19T07:28:31.601Z,99614.59
2023-02-19T07:31:02.085Z,99619.81
2023-02-19T07:33:28.717Z,99625.94
2023-02-19T07:35:55.185Z,99630.16
2023-02-19T07:38:23.745Z,99637.03
2023-02-19T07:40:54.804Z,99628.13
2023-02-19T07:43:22.139Z,99640.31
2023-02-19T07:45:48.813Z,99641.00
2023-02-19T07:48:15.376Z,99646.94
2023-02-19T07:50:41.935Z,99658.06
2023-02-19T07:53:08.596Z,99660.38
2023-02-19T07:55:35.348Z,99658.56
2023-02-19T07:58:01.867Z,99680.28
2023-02-19T08:00:28.338Z,99677.66
2023-02-19T08:03:00.661Z,99681.84
2023-02-19T08:05:29.015Z,99678.41
2023-02-19T08:07:55.508Z,99685.81
2023-02-19T08:10:40.963Z,99681.16
2023-02-19T08:13:22.522Z,99691.16
2023-02-19T08:15:50.494Z,99686.69
2023-02-19T08:18:18.166Z,99693.50
2023-02-19T08:20:45.025Z,99704.84
2023-02-19T08:23:12.392Z,99705.66
2023-02-19T08:25:39.929Z,99705.59
2023-02-19T08:28:07.898Z,99721.22
2023-02-19T08:30:35.296Z,99720.31
2023-02-19T08:33:02.562Z,99726.19
2023-02-19T08:35:29.217Z,99726.72
2023-02-19T08:37:59.323Z,99735.97
2023-02-19T08:40:26.652Z,99736.97
2023-02-19T08:42:53.592Z,99744.00
2023-02-19T08:45:20.157Z,99745.75
2023-02-19T08:47:47.046Z,99745.69
2023-02-19T08:50:13.615Z,99744.81
2023-02-19T08:52:40.137Z,99756.16
2023-02-19T08:55:07.295Z,99761.69
2023-02-19T08:57:37.702Z,99754.97
2023-02-19T09:00:05.934Z,99758.81
2023-02-19T09:02:32.622Z,99765.81
2023-02-19T09:04:59.370Z,99765.13
2023-02-19T09:07:25.986Z,99784.59
2023-02-19T09:09:53.081Z,99773.97
2023-02-19T09:12:19.706Z,99777.34
2023-02-19T09:14:46.765Z,99777.69
2023-02-19T09:17:13.368Z,99779.78
2023-02-19T09:19:39.850Z,99793.06
2023-02-19T09:22:06.823Z,99791.53
2023-02-19T09:24:33.455Z,99794.28
2023-02-19T09:26:59.987Z,99801.91
2023-02-19T09:29:28.260Z,99802.94
2023-02-19T09:31:58.945Z,99804.56
2023-02-19T09:34:27.123Z,99815.53
2023-02-19T09:36:54.053Z,99816.91
2023-02-19T09:39:21.552Z,99810.13
2023-02-19T09:41:55.120Z,99813.03
2023-02-19T09:44:29.402Z,99818.06
2023-02-19T09:46:56.552Z,99824.34
2023-02-19T09:49:35.464Z,99828.31
2023-02-19T09:52:18.487Z,99828.25
2023-02-19T09:54:47.084Z,99837.41
2023-02-19T09:57:16.348Z,99840.41
2023-02-19T09:59:51.782Z,99842.41
2023-02-19T10:02:23.041Z,99844.63
2023-02-19T10:04:51.392Z,99851.44
2023-02-19T10:07:28.281Z,99863.78
2023-02-19T10:10:01.201Z,99865.28
2023-02-19T10:12:30.758Z,99866.53
2023-02-19T10:15:09.595Z,99873.13
2023-02-19T10:17:37.428Z,99872.97
2023-02-19T10:20:04.526Z,99879.56
2023-02-19T10:22:35.891Z,99887.84
2023-02-19T10:25:02.824Z,99890.69
2023-02-19T10:27:33.240Z,99891.66
2023-02-19T10:30:00.585Z,99897.41
2023-02-19T10:32:27.677Z,99908.88
2023-02-19T10:35:15.072Z,99911.00
2023-02-19T10:37:44.714Z,99913.16
2023-02-19T10:40:20.554Z,99915.13
2023-02-19T10:42:49.255Z,99909.66
2023-02-19T10:45:47.814Z,99918.31
2023-02-19T10:48:28.262Z,99923.81
2023-02-19T10:51:00.020Z,99926.84
2023-02-19T10:53:42.447Z,99936.09
2023-02-19T10:56:13.032Z,99924.50
2023-02-19T10:58:43.420Z,99938.34
2023-02-19T11:01:19.594Z,99952.69
2023-02-19T11:03:50.469Z,99943.88
2023-02-19T11:06:20.718Z,99947.28
2023-02-19T11:08:51.001Z,99943.56
2023-02-19T11:11:30.884Z,99949.84
2023-02-19T11:13:59.053Z,99954.63
2023-02-19T11:16:42.430Z,99941.75
2023-02-19T11:19:23.654Z,99954.34
2023-02-19T11:21:50.470Z,99960.09
2023-02-19T11:24:37.316Z,99957.50
2023-02-19T11:27:06.579Z,99961.03
2023-02-19T11:29:34.921Z,99968.53
2023-02-19T11:32:25.420Z,99965.25
2023-02-19T11:34:52.689Z,99961.09
2023-02-19T11:37:21.438Z,99971.38
2023-02-19T11:39:50.484Z,99969.88
2023-02-19T11:42:33.564Z,99971.56
2023-02-19T11:45:18.114Z,99971.28
2023-02-19T11:47:59.445Z,99971.25
2023-02-19T11:50:59.748Z,99974.84
2023-02-19T11:53:28.760Z,99966.97
2023-02-19T11:56:34.006Z,99976.69
2023-02-19T11:59:05.858Z,99976.38
2023-02-19T12:01:51.024Z,99985.91
2023-02-19T12:04:25.782Z,99971.63
2023-02-19T12:07:10.786Z,99968.56
2023-02-19T12:09:45.753Z,99985.19
2023-02-19T12:12:18.083Z,99991.22
2023-02-19T12:14:58.828Z,99983.56
2023-02-19T12:17:53.084Z,99988.50
2023-02-19T12:20:32.245Z,99997.72
2023-02-19T12:23:33.682Z,100005.47
2023-02-19T12:26:30.595Z,100019.56
2023-02-19T12:29:32.192Z,100007.22
2023-02-19T12:32:17.050Z,100020.34
2023-02-19T12:35:07.904Z,100021.00
2023-02-19T12:38:12.065Z,100031.88
2023-02-19T12:40:50.095Z,100027.00
2023-02-19T12:43:20.919Z,100030.69
2023-02-19T12:45:58.155Z,100030.13
2023-02-19T12:48:30.839Z,100039.19
2023-02-19T12:51:23.383Z,100045.75
2023-02-19T12:53:56.137Z,100044.03
2023-02-19T12:56:32.006Z,100038.25
2023-02-19T12:59:03.332Z,100060.06
2023-02-19T13:01:36.045Z,100061.78
2023-02-19T13:04:22.702Z,100066.63
2023-02-19T13:07:03.424Z,100080.94
2023-02-19T13:09:37.065Z,100065.00
2023-02-19T13:12:11.596Z,100073.53
2023-02-19T13:14:45.229Z,100083.03
2023-02-19T13:17:29.640Z,100090.13
2023-02-19T13:20:09.621Z,100074.06
2023-02-19T13:23:05.089Z,100070.16
2023-02-19T13:26:22.466Z,100072.22
2023-02-19T13:29:07.862Z,100085.06
2023-02-19T13:32:12.089Z,100088.38
2023-02-19T13:34:50.520Z,100078.47
2023-02-19T13:37:17.890Z,100083.81
2023-02-19T13:39:53.760Z,100086.72
2023-02-19T13:42:37.042Z,100088.16
2023-02-19T13:45:06.461Z,100093.38
2023-02-19T13:47:55.080Z,100095.28
2023-02-19T13:50:33.209Z,100099.63
2023-02-19T13:53:01.579Z,100102.19
2023-02-19T13:55:43.287Z,100103.31
2023-02-19T13:58:39.817Z,100111.09
2023-02-19T14:01:10.748Z,100106.56
2023-02-19T14:03:37.469Z,100106.44
2023-02-19T14:06:06.963Z,100111.94
2023-02-19T14:08:52.682Z,100119.44
2023-02-19T14:11:41.910Z,100099.56
2023-02-19T14:14:25.533Z,100108.09
2023-02-19T14:16:56.233Z,100127.22
2023-02-19T14:19:41.263Z,100132.19
2023-02-19T14:22:45.043Z,100117.91
2023-02-19T14:25:38.451Z,100133.22
2023-02-19T14:28:17.057Z,100128.94
2023-02-19T14:30:55.941Z,100149.94
2023-02-19T14:33:26.913Z,100150.78
2023-02-19T14:36:05.972Z,100132.44
2023-02-19T14:38:57.357Z,100161.81
2023-02-19T14:41:24.976Z,100159.28
2023-02-19T14:43:54.614Z,100162.00
2023-02-19T14:46:31.257Z,100153.69
2023-02-19T14:49:25.217Z,100162.53
2023-02-19T14:51:59.406Z,100172.03
2023-02-19T14:55:03.256Z,100168.03
2023-02-19T14:57:34.907Z,100172.22
2023-02-19T15:00:04.557Z,100176.81
2023-02-19T15:02:32.469Z,100173.75
2023-02-19T15:04:59.100Z,100192.63
2023-02-19T15:07:31.623Z,100198.72
2023-02-19T15:10:05.020Z,100200.97
2023-02-19T15:12:53.773Z,100199.88
2023-02-19T15:15:27.132Z,100214.38
2023-02-19T15:17:55.331Z,100215.63
2023-02-19T15:20:28.036Z,100212.22
2023-02-19T15:22:56.379Z,100205.22
2023-02-19T15:25:27.161Z,100209.22
2023-02-19T15:27:53.663Z,100201.47
2023-02-19T15:30:24.865Z,100215.22
2023-02-19T15:33:01.631Z,100215.91
2023-02-19T15:35:30.002Z,100230.72
2023-02-19T15:37:56.948Z,100227.72
2023-02-19T15:40:31.432Z,100226.72
2023-02-19T15:43:00.161Z,100227.34
2023-02-19T15:45:43.516Z,100238.75
2023-02-19T15:48:20.489Z,100240.25
2023-02-19T15:50:56.090Z,100248.19
2023-02-19T15:53:26.966Z,100257.34
2023-02-19T15:56:14.866Z,100263.31
2023-02-19T15:58:51.528Z,100269.31
2023-02-19T16:01:28.631Z,100281.38
2023-02-19T16:03:55.995Z,100272.63
2023-02-19T16:06:26.978Z,100290.69
2023-02-19T16:09:06.776Z,100288.09
2023-02-19T16:11:39.291Z,100286.66
2023-02-19T16:14:32.104Z,100290.22
2023-02-19T16:17:11.454Z,100283.00
2023-02-19T16:19:55.616Z,100292.47
2023-02-19T16:22:25.611Z,100293.94
2023-02-19T16:24:57.745Z,100291.06
2023-02-19T16:27:31.606Z,100299.16
2023-02-19T16:29:58.842Z,100300.09
2023-02-19T16:32:25.393Z,100316.53
2023-02-19T16:34:52.194Z,100316.41
2023-02-19T16:37:35.109Z,100324.16
2023-02-19T16:40:07.327Z,100323.09
2023-02-19T16:42:34.629Z,100323.31
2023-02-19T16:45:01.133Z,100329.34
2023-02-19T16:47:38.354Z,100330.31
2023-02-19T16:50:15.784Z,100329.75
2023-02-19T16:52:53.467Z,100332.34
2023-02-19T16:55:20.169Z,100340.06
2023-02-19T16:57:46.787Z,100350.41
2023-02-19T17:00:21.761Z,100349.56
2023-02-19T17:02:50.735Z,100352.16
2023-02-19T17:05:19.128Z,100367.09
2023-02-19T17:07:45.999Z,100366.16
2023-02-19T17:10:24.197Z,100386.97
2023-02-19T17:12:52.220Z,100385.22
2023-02-19T17:15:19.098Z,100378.22
2023-02-19T17:17:45.767Z,100384.53
2023-02-19T17:20:24.241Z,100390.53
2023-02-19T17:22:50.782Z,100394.63
2023-02-19T17:25:17.299Z,100397.03
2023-02-19T17:27:43.823Z,100404.78
2023-02-19T17:30:16.636Z,100407.09
2023-02-19T17:32:43.174Z,100400.03
2023-02-19T17:35:09.699Z,100390.97
2023-02-19T17:37:36.282Z,100398.03
2023-02-19T17:40:03.305Z,100399.72
2023-02-19T17:42:29.906Z,100413.72
2023-02-19T17:44:56.589Z,100408.44
2023-02-19T17:47:23.087Z,100409.41
2023-02-19T17:49:49.652Z,100416.31
2023-02-19T17:52:17.852Z,100413.75
2023-02-19T17:54:44.529Z,100423.19
2023-02-19T17:57:11.032Z,100417.94
2023-02-19T17:59:37.516Z,100431.66
2023-02-19T18:02:04.278Z,100440.41
2023-02-19T18:04:30.817Z,100451.47
2023-02-19T18:06:57.346Z,100442.00
2023-02-19T18:09:24.049Z,100449.53
2023-02-19T18:11:50.605Z,100450.66
2023-02-19T18:14:17.213Z,100452.47
2023-02-19T18:16:50.419Z,100452.25
2023-02-19T18:19:17.320Z,100450.44
2023-02-19T18:21:44.090Z,100443.53
2023-02-19T18:24:10.664Z,100448.66
2023-02-19T18:26:37.163Z,100451.03
2023-02-19T18:29:05.872Z,100460.59
2023-02-19T18:31:33.566Z,100468.34
2023-02-19T18:34:00.130Z,100476.97
2023-02-19T18:36:26.714Z,100473.34
2023-02-19T18:38:53.349Z,100481.13
2023-02-19T18:41:21.217Z,100487.38
2023-02-19T18:43:48.368Z,100487.25
2023-02-19T18:46:15.042Z,100474.25
2023-02-19T18:48:41.723Z,100487.00
2023-02-19T18:51:12.170Z,100496.44
2023-02-19T18:53:38.984Z,100505.53
2023-02-19T18:56:05.923Z,100509.50
2023-02-19T18:58:32.567Z,100504.09
2023-02-19T19:00:59.666Z,100500.38
2023-02-19T19:03:26.250Z,100507.00
2023-02-19T19:05:52.833Z,100504.16
2023-02-19T19:08:19.309Z,100500.50
2023-02-19T19:10:45.802Z,100493.91
2023-02-19T19:13:12.347Z,100502.41
2023-02-19T19:15:41.407Z,100507.59
2023-02-19T19:18:09.133Z,100504.13
2023-02-19T19:20:35.658Z,100502.16
2023-02-19T19:23:02.419Z,100505.56
2023-02-19T19:25:28.890Z,100501.91
2023-02-19T19:27:56.170Z,100508.63
2023-02-19T19:30:22.823Z,100506.66
2023-02-19T19:32:50.360Z,100516.28
2023-02-19T19:35:18.639Z,100514.38
2023-02-19T19:37:45.606Z,100518.75
2023-02-19T19:40:12.830Z,100533.31
2023-02-19T19:42:39.444Z,100536.34
2023-02-19T19:45:06.515Z,100526.88
2023-02-19T19:47:33.185Z,100527.78
2023-02-19T19:49:59.703Z,100521.84
2023-02-19T19:52:26.192Z,100522.59
2023-02-19T19:54:54.356Z,100528.69
2023-02-19T19:57:21.396Z,100534.50
2023-02-19T19:59:51.726Z,100537.81
2023-02-19T20:02:18.412Z,100547.28
2023-02-19T20:04:45.235Z,100554.31
2023-02-19T20:07:11.809Z,100556.81
2023-02-19T20:09:38.279Z,100558.59
2023-02-19T20:12:05.285Z,100562.22
2023-02-19T20:14:31.964Z,100550.88
2023-02-19T20:16:58.665Z,100561.31
2023-02-19T20:19:26.023Z,100558.66
2023-02-19T20:21:53.721Z,100563.78
2023-02-19T20:24:26.108Z,100559.41
2023-02-19T20:27:01.034Z,100564.53
2023-02-19T20:29:31.751Z,100560.81
2023-02-19T20:32:00.362Z,100564.78
2023-02-19T20:34:27.406Z,100559.50
2023-02-19T20:36:54.393Z,100557.81
2023-02-19T20:39:21.737Z,100560.41
2023-02-19T20:41:52.089Z,100561.13
2023-02-19T20:44:19.431Z,100570.03
2023-02-19T20:46:49.167Z,100573.16
2023-02-19T20:49:17.998Z,100580.75
2023-02-19T20:51:46.682Z,100580.06
2023-02-19T20:54:13.894Z,100589.41
2023-02-19T20:56:45.066Z,100593.78
2023-02-19T20:59:12.390Z,100594.47
2023-02-19T21:01:39.590Z,100595.44
2023-02-19T21:04:06.409Z,100598.16
2023-02-19T21:06:33.117Z,100597.28
2023-02-19T21:08:59.719Z,100601.63
2023-02-19T21:11:26.289Z,100594.69
2023-02-19T21:13:52.903Z,100598.81
2023-02-19T21:16:19.633Z,100603.00
2023-02-19T21:18:46.203Z,100608.34
2023-02-19T21:21:12.832Z,100616.03
2023-02-19T21:23:39.478Z,100615.22
2023-02-19T21:26:06.071Z,100619.41
2023-02-19T21:28:32.590Z,100623.53
2023-02-19T21:30:59.140Z,100634.88
2023-02-19T21:33:25.759Z,100630.63
2023-02-19T21:35:52.268Z,100633.22
2023-02-19T21:38:18.780Z,100632.38
2023-02-19T21:40:45.292Z,100632.22
2023-02-19T21:43:12.837Z,100629.03
2023-02-19T21:45:39.470Z,100632.22
2023-02-19T21:48:07.986Z,100635.41
2023-02-19T21:50:34.693Z,100635.34
2023-02-19T21:53:01.506Z,100635.13
2023-02-19T21:55:28.989Z,100649.75
2023-02-19T21:57:55.530Z,100660.22
2023-02-19T22:00:22.118Z,100667.97
2023-02-19T22:02:48.633Z,100665.31
2023-02-19T22:05:15.572Z,100667.06
2023-02-19T22:07:42.418Z,100665.22
2023-02-19T22:10:09.597Z,100659.97
2023-02-19T22:12:36.084Z,100663.97
2023-02-19T22:15:02.598Z,100659.00
2023-02-19T22:17:29.105Z,100663.16
2023-02-19T22:19:55.581Z,100662.25
2023-02-19T22:22:22.096Z,100665.66
2023-02-19T22:24:48.579Z,100665.59
2023-02-19T22:27:15.062Z,100665.53
2023-02-19T22:29:41.569Z,100677.53
2023-02-19T22:32:08.389Z,100675.63
2023-02-19T22:34:40.037Z,100673.97
2023-02-19T22:37:06.553Z,100675.63
2023-02-19T22:39:33.043Z,100671.97
2023-02-19T22:41:59.855Z,100678.72
2023-02-19T22:44:26.468Z,100675.06
2023-02-19T22:46:55.347Z,100673.31
2023-02-19T22:49:23.092Z,100685.59
2023-02-19T22:51:59.980Z,100670.63
2023-02-19T22:54:27.184Z,100674.13
2023-02-19T22:56:55.134Z,100676.56
2023-02-19T22:59:22.730Z,100678.19
2023-02-19T23:01:49.955Z,100681.59
2023-02-19T23:04:16.962Z,100685.00
2023-02-19T23:06:47.090Z,100672.72
2023-02-19T23:09:21.513Z,100675.88
2023-02-19T23:11:48.241Z,100669.66
2023-02-19T23:14:23.585Z,100672.47
2023-02-19T23:16:50.131Z,100673.13
2023-02-19T23:19:16.712Z,100673.88
2023-02-19T23:21:44.892Z,100677.41
2023-02-19T23:24:12.625Z,100680.91
2023-02-19T23:26:44.039Z,100685.19
2023-02-19T23:29:10.935Z,100673.06
2023-02-19T23:31:37.693Z,100674.16
2023-02-19T23:34:04.380Z,100675.50
2023-02-19T23:36:30.823Z,100669.50
2023-02-19T23:38:57.291Z,100650.47
2023-02-19T23:41:23.792Z,100649.59
2023-02-19T23:43:50.455Z,100656.41
2023-02-19T23:46:18.366Z,100654.59
2023-02-19T23:48:46.074Z,100644.81
2023-02-19T23:51:12.934Z,100646.47
2023-02-19T23:53:39.554Z,100647.28
2023-02-19T23:56:06.716Z,100645.41
2023-02-19T23:58:33.284Z,100650.59
